sensor_id;sensor_type;location;lat;lon;timestamp;temperature;humidity
28839;DHT22;15971;50.772;6.100;2022-10-26T00:01:10;15.00;99.90
28839;DHT22;15971;50.772;6.100;2022-10-26T00:03:37;14.90;99.90
28839;DHT22;15971;50.772;6.100;2022-10-26T00:08:36;14.90;99.90
28839;DHT22;15971;50.772;6.100;2022-10-26T00:11:02;14.90;99.90
28839;DHT22;15971;50.772;6.100;2022-10-26T00:13:28;15.00;99.90
28839;DHT22;15971;50.772;6.100;2022-10-26T00:15:54;14.80;99.90
28839;DHT22;15971;50.772;6.100;2022-10-26T00:18:20;15.00;99.90
28839;DHT22;15971;50.772;6.100;2022-10-26T00:20:45;15.10;99.90
28839;DHT22;15971;50.772;6.100;2022-10-26T00:23:11;15.00;99.90
28839;DHT22;15971;50.772;6.100;2022-10-26T00:25:37;15.10;99.90
28839;DHT22;15971;50.772;6.100;2022-10-26T00:28:02;15.20;99.90
28839;DHT22;15971;50.772;6.100;2022-10-26T00:30:28;15.20;99.90
28839;DHT22;15971;50.772;6.100;2022-10-26T00:32:54;15.20;99.90
28839;DHT22;15971;50.772;6.100;2022-10-26T00:35:19;15.20;99.90
28839;DHT22;15971;50.772;6.100;2022-10-26T00:37:45;15.30;99.90
28839;DHT22;15971;50.772;6.100;2022-10-26T00:40:11;15.30;99.90
28839;DHT22;15971;50.772;6.100;2022-10-26T00:42:36;15.30;99.90
28839;DHT22;15971;50.772;6.100;2022-10-26T00:45:18;15.30;99.90
28839;DHT22;15971;50.772;6.100;2022-10-26T00:47:47;15.30;99.90
28839;DHT22;15971;50.772;6.100;2022-10-26T00:50:21;15.40;99.90
28839;DHT22;15971;50.772;6.100;2022-10-26T00:52:50;15.50;99.90
28839;DHT22;15971;50.772;6.100;2022-10-26T00:55:18;15.60;99.90
28839;DHT22;15971;50.772;6.100;2022-10-26T00:57:46;15.60;99.90
28839;DHT22;15971;50.772;6.100;2022-10-26T01:00:12;15.60;99.90
28839;DHT22;15971;50.772;6.100;2022-10-26T01:02:38;15.60;99.90
28839;DHT22;15971;50.772;6.100;2022-10-26T01:05:04;15.90;99.90
28839;DHT22;15971;50.772;6.100;2022-10-26T01:07:32;15.90;99.90
28839;DHT22;15971;50.772;6.100;2022-10-26T01:09:59;15.90;99.90
28839;DHT22;15971;50.772;6.100;2022-10-26T01:12:24;16.00;99.90
28839;DHT22;15971;50.772;6.100;2022-10-26T01:14:50;16.00;99.90
28839;DHT22;15971;50.772;6.100;2022-10-26T01:17:32;16.10;99.90
28839;DHT22;15971;50.772;6.100;2022-10-26T01:23:14;16.10;99.90
28839;DHT22;15971;50.772;6.100;2022-10-26T01:31:32;16.10;99.90
28839;DHT22;15971;50.772;6.100;2022-10-26T01:34:52;16.20;99.90
28839;DHT22;15971;50.772;6.100;2022-10-26T01:37:13;16.30;99.90
28839;DHT22;15971;50.772;6.100;2022-10-26T01:39:44;16.30;99.90
28839;DHT22;15971;50.772;6.100;2022-10-26T01:42:12;16.50;99.90
28839;DHT22;15971;50.772;6.100;2022-10-26T01:47:37;16.60;99.90
28839;DHT22;15971;50.772;6.100;2022-10-26T01:50:05;16.50;99.90
28839;DHT22;15971;50.772;6.100;2022-10-26T01:52:31;16.50;99.90
28839;DHT22;15971;50.772;6.100;2022-10-26T01:55:03;16.60;99.90
28839;DHT22;15971;50.772;6.100;2022-10-26T01:57:32;16.60;99.90
28839;DHT22;15971;50.772;6.100;2022-10-26T02:08:30;16.70;99.90
28839;DHT22;15971;50.772;6.100;2022-10-26T02:11:12;16.60;99.90
28839;DHT22;15971;50.772;6.100;2022-10-26T02:13:50;16.60;99.90
28839;DHT22;15971;50.772;6.100;2022-10-26T02:21:58;16.50;99.90
28839;DHT22;15971;50.772;6.100;2022-10-26T02:24:25;16.60;99.90
28839;DHT22;15971;50.772;6.100;2022-10-26T02:26:52;16.50;99.90
28839;DHT22;15971;50.772;6.100;2022-10-26T02:29:19;16.40;99.90
28839;DHT22;15971;50.772;6.100;2022-10-26T02:31:47;16.50;99.90
28839;DHT22;15971;50.772;6.100;2022-10-26T02:34:17;16.50;99.90
28839;DHT22;15971;50.772;6.100;2022-10-26T02:36:46;16.60;99.90
28839;DHT22;15971;50.772;6.100;2022-10-26T02:39:15;16.50;99.90
28839;DHT22;15971;50.772;6.100;2022-10-26T02:41:43;16.50;99.90
28839;DHT22;15971;50.772;6.100;2022-10-26T02:44:21;16.60;99.90
28839;DHT22;15971;50.772;6.100;2022-10-26T02:46:48;16.60;99.90
28839;DHT22;15971;50.772;6.100;2022-10-26T02:49:14;16.70;99.90
28839;DHT22;15971;50.772;6.100;2022-10-26T02:54:48;16.60;99.90
28839;DHT22;15971;50.772;6.100;2022-10-26T02:57:12;16.70;99.90
28839;DHT22;15971;50.772;6.100;2022-10-26T02:59:41;16.60;99.90
28839;DHT22;15971;50.772;6.100;2022-10-26T03:02:08;16.70;99.90
28839;DHT22;15971;50.772;6.100;2022-10-26T03:04:34;16.70;99.90
28839;DHT22;15971;50.772;6.100;2022-10-26T03:07:00;16.70;99.90
28839;DHT22;15971;50.772;6.100;2022-10-26T03:09:26;16.70;99.90
28839;DHT22;15971;50.772;6.100;2022-10-26T03:11:52;16.70;99.90
28839;DHT22;15971;50.772;6.100;2022-10-26T03:14:18;16.80;99.90
28839;DHT22;15971;50.772;6.100;2022-10-26T03:16:44;16.70;99.90
28839;DHT22;15971;50.772;6.100;2022-10-26T03:19:09;16.70;99.90
28839;DHT22;15971;50.772;6.100;2022-10-26T03:21:35;16.70;99.90
28839;DHT22;15971;50.772;6.100;2022-10-26T03:24:00;16.70;99.90
28839;DHT22;15971;50.772;6.100;2022-10-26T03:26:26;16.90;99.90
28839;DHT22;15971;50.772;6.100;2022-10-26T03:28:52;16.80;99.90
28839;DHT22;15971;50.772;6.100;2022-10-26T03:31:17;16.80;99.90
28839;DHT22;15971;50.772;6.100;2022-10-26T03:33:43;16.80;99.90
28839;DHT22;15971;50.772;6.100;2022-10-26T03:36:09;16.80;99.90
28839;DHT22;15971;50.772;6.100;2022-10-26T03:38:34;16.80;99.90
28839;DHT22;15971;50.772;6.100;2022-10-26T03:41:00;16.70;99.90
28839;DHT22;15971;50.772;6.100;2022-10-26T03:43:26;16.70;99.90
28839;DHT22;15971;50.772;6.100;2022-10-26T03:45:51;16.60;99.90
28839;DHT22;15971;50.772;6.100;2022-10-26T03:48:17;16.70;99.90
28839;DHT22;15971;50.772;6.100;2022-10-26T03:50:43;16.70;99.90
28839;DHT22;15971;50.772;6.100;2022-10-26T03:53:08;16.70;99.90
28839;DHT22;15971;50.772;6.100;2022-10-26T03:55:34;16.80;99.90
28839;DHT22;15971;50.772;6.100;2022-10-26T03:58:00;16.80;99.90
28839;DHT22;15971;50.772;6.100;2022-10-26T04:00:25;16.80;99.90
28839;DHT22;15971;50.772;6.100;2022-10-26T04:02:58;16.70;99.90
28839;DHT22;15971;50.772;6.100;2022-10-26T04:05:26;16.70;99.90
28839;DHT22;15971;50.772;6.100;2022-10-26T04:07:53;16.60;99.90
28839;DHT22;15971;50.772;6.100;2022-10-26T04:10:19;16.70;99.90
28839;DHT22;15971;50.772;6.100;2022-10-26T04:12:45;16.70;99.90
28839;DHT22;15971;50.772;6.100;2022-10-26T04:15:11;16.60;99.90
28839;DHT22;15971;50.772;6.100;2022-10-26T04:17:36;16.70;99.90
28839;DHT22;15971;50.772;6.100;2022-10-26T04:20:02;16.70;99.90
28839;DHT22;15971;50.772;6.100;2022-10-26T04:22:28;16.60;99.90
28839;DHT22;15971;50.772;6.100;2022-10-26T04:24:53;16.60;99.90
28839;DHT22;15971;50.772;6.100;2022-10-26T04:27:19;16.60;99.90
28839;DHT22;15971;50.772;6.100;2022-10-26T04:29:45;16.70;99.90
28839;DHT22;15971;50.772;6.100;2022-10-26T04:32:11;16.70;99.90
28839;DHT22;15971;50.772;6.100;2022-10-26T04:34:36;16.60;99.90
28839;DHT22;15971;50.772;6.100;2022-10-26T04:37:02;16.60;99.90
28839;DHT22;15971;50.772;6.100;2022-10-26T04:39:27;16.70;99.90
28839;DHT22;15971;50.772;6.100;2022-10-26T04:41:53;16.60;99.90
28839;DHT22;15971;50.772;6.100;2022-10-26T04:44:19;16.80;99.90
28839;DHT22;15971;50.772;6.100;2022-10-26T04:46:44;16.60;99.90
28839;DHT22;15971;50.772;6.100;2022-10-26T04:49:10;16.60;99.90
28839;DHT22;15971;50.772;6.100;2022-10-26T04:51:36;16.60;99.90
28839;DHT22;15971;50.772;6.100;2022-10-26T04:54:01;16.70;99.90
28839;DHT22;15971;50.772;6.100;2022-10-26T04:56:28;16.80;99.90
28839;DHT22;15971;50.772;6.100;2022-10-26T04:58:53;16.70;99.90
28839;DHT22;15971;50.772;6.100;2022-10-26T05:01:19;16.70;99.90
28839;DHT22;15971;50.772;6.100;2022-10-26T05:03:51;16.80;99.90
28839;DHT22;15971;50.772;6.100;2022-10-26T05:06:20;16.70;99.90
28839;DHT22;15971;50.772;6.100;2022-10-26T05:08:46;16.80;99.90
28839;DHT22;15971;50.772;6.100;2022-10-26T05:11:12;16.80;99.90
28839;DHT22;15971;50.772;6.100;2022-10-26T05:13:37;16.50;99.90
28839;DHT22;15971;50.772;6.100;2022-10-26T05:16:03;16.70;99.90
28839;DHT22;15971;50.772;6.100;2022-10-26T05:18:28;16.80;99.90
28839;DHT22;15971;50.772;6.100;2022-10-26T05:20:54;16.90;99.90
28839;DHT22;15971;50.772;6.100;2022-10-26T05:23:20;17.00;99.90
28839;DHT22;15971;50.772;6.100;2022-10-26T05:25:46;16.90;99.90
28839;DHT22;15971;50.772;6.100;2022-10-26T05:28:13;17.10;99.90
28839;DHT22;15971;50.772;6.100;2022-10-26T05:30:43;16.80;99.90
28839;DHT22;15971;50.772;6.100;2022-10-26T05:33:11;16.80;99.90
28839;DHT22;15971;50.772;6.100;2022-10-26T05:35:37;16.70;99.90
28839;DHT22;15971;50.772;6.100;2022-10-26T05:38:11;16.70;99.90
28839;DHT22;15971;50.772;6.100;2022-10-26T05:40:37;16.90;99.90
28839;DHT22;15971;50.772;6.100;2022-10-26T05:43:03;16.80;99.90
28839;DHT22;15971;50.772;6.100;2022-10-26T05:45:28;16.80;99.90
28839;DHT22;15971;50.772;6.100;2022-10-26T05:47:54;16.80;99.90
28839;DHT22;15971;50.772;6.100;2022-10-26T05:50:20;16.90;99.90
28839;DHT22;15971;50.772;6.100;2022-10-26T05:52:46;17.00;99.90
28839;DHT22;15971;50.772;6.100;2022-10-26T05:55:16;16.90;99.90
28839;DHT22;15971;50.772;6.100;2022-10-26T05:57:42;16.80;99.90
28839;DHT22;15971;50.772;6.100;2022-10-26T06:00:16;16.80;99.90
28839;DHT22;15971;50.772;6.100;2022-10-26T06:05:28;16.60;99.90
28839;DHT22;15971;50.772;6.100;2022-10-26T06:07:56;16.60;99.90
28839;DHT22;15971;50.772;6.100;2022-10-26T06:12:47;16.60;99.90
28839;DHT22;15971;50.772;6.100;2022-10-26T06:15:22;16.40;99.90
28839;DHT22;15971;50.772;6.100;2022-10-26T06:18:07;16.40;99.90
28839;DHT22;15971;50.772;6.100;2022-10-26T06:21:08;16.40;99.90
28839;DHT22;15971;50.772;6.100;2022-10-26T06:26:39;16.40;99.90
28839;DHT22;15971;50.772;6.100;2022-10-26T06:29:24;16.40;99.90
28839;DHT22;15971;50.772;6.100;2022-10-26T06:31:54;16.40;99.90
28839;DHT22;15971;50.772;6.100;2022-10-26T06:34:26;16.30;99.90
28839;DHT22;15971;50.772;6.100;2022-10-26T06:36:55;16.30;99.90
28839;DHT22;15971;50.772;6.100;2022-10-26T06:39:22;16.30;99.90
28839;DHT22;15971;50.772;6.100;2022-10-26T06:41:50;16.30;99.90
28839;DHT22;15971;50.772;6.100;2022-10-26T06:44:21;16.20;99.90
28839;DHT22;15971;50.772;6.100;2022-10-26T06:49:34;16.30;99.90
28839;DHT22;15971;50.772;6.100;2022-10-26T06:52:15;16.30;99.90
28839;DHT22;15971;50.772;6.100;2022-10-26T06:54:53;16.30;99.90
28839;DHT22;15971;50.772;6.100;2022-10-26T06:57:24;16.40;99.90
28839;DHT22;15971;50.772;6.100;2022-10-26T07:00:00;16.40;99.90
28839;DHT22;15971;50.772;6.100;2022-10-26T07:02:26;16.50;99.90
28839;DHT22;15971;50.772;6.100;2022-10-26T07:04:52;16.30;99.90
28839;DHT22;15971;50.772;6.100;2022-10-26T07:07:20;16.20;99.90
28839;DHT22;15971;50.772;6.100;2022-10-26T07:09:46;16.20;99.90
28839;DHT22;15971;50.772;6.100;2022-10-26T07:12:11;16.20;99.90
28839;DHT22;15971;50.772;6.100;2022-10-26T07:14:37;16.20;99.90
28839;DHT22;15971;50.772;6.100;2022-10-26T07:17:03;16.30;99.90
28839;DHT22;15971;50.772;6.100;2022-10-26T07:19:28;16.20;99.90
28839;DHT22;15971;50.772;6.100;2022-10-26T07:21:55;16.10;99.90
28839;DHT22;15971;50.772;6.100;2022-10-26T07:24:21;16.30;99.90
28839;DHT22;15971;50.772;6.100;2022-10-26T07:26:47;16.50;99.90
28839;DHT22;15971;50.772;6.100;2022-10-26T07:29:13;16.30;99.90
28839;DHT22;15971;50.772;6.100;2022-10-26T07:31:41;16.20;99.90
28839;DHT22;15971;50.772;6.100;2022-10-26T07:34:07;16.30;99.90
28839;DHT22;15971;50.772;6.100;2022-10-26T07:36:33;17.40;99.90
28839;DHT22;15971;50.772;6.100;2022-10-26T07:39:01;18.10;99.90
28839;DHT22;15971;50.772;6.100;2022-10-26T07:41:27;18.30;99.90
28839;DHT22;15971;50.772;6.100;2022-10-26T07:43:53;18.30;99.90
28839;DHT22;15971;50.772;6.100;2022-10-26T07:46:18;18.10;99.90
28839;DHT22;15971;50.772;6.100;2022-10-26T07:48:44;18.00;99.90
28839;DHT22;15971;50.772;6.100;2022-10-26T07:51:09;17.70;99.90
28839;DHT22;15971;50.772;6.100;2022-10-26T07:53:35;17.60;99.90
28839;DHT22;15971;50.772;6.100;2022-10-26T07:56:00;17.70;99.90
28839;DHT22;15971;50.772;6.100;2022-10-26T07:58:26;17.50;99.90
28839;DHT22;15971;50.772;6.100;2022-10-26T08:00:52;17.40;99.90
28839;DHT22;15971;50.772;6.100;2022-10-26T08:03:19;17.30;99.90
28839;DHT22;15971;50.772;6.100;2022-10-26T08:05:46;17.20;99.90
28839;DHT22;15971;50.772;6.100;2022-10-26T08:08:12;17.10;99.90
28839;DHT22;15971;50.772;6.100;2022-10-26T08:10:44;17.00;99.90
28839;DHT22;15971;50.772;6.100;2022-10-26T08:13:11;17.00;99.90
28839;DHT22;15971;50.772;6.100;2022-10-26T08:15:37;16.90;99.90
28839;DHT22;15971;50.772;6.100;2022-10-26T08:18:03;16.80;99.90
28839;DHT22;15971;50.772;6.100;2022-10-26T08:20:29;16.90;99.90
28839;DHT22;15971;50.772;6.100;2022-10-26T08:23:00;16.90;99.90
28839;DHT22;15971;50.772;6.100;2022-10-26T08:25:26;17.00;99.90
28839;DHT22;15971;50.772;6.100;2022-10-26T08:27:52;17.00;99.90
28839;DHT22;15971;50.772;6.100;2022-10-26T08:30:18;17.10;99.90
28839;DHT22;15971;50.772;6.100;2022-10-26T08:32:44;17.30;99.90
28839;DHT22;15971;50.772;6.100;2022-10-26T08:35:10;17.30;99.90
28839;DHT22;15971;50.772;6.100;2022-10-26T08:37:35;17.40;99.90
28839;DHT22;15971;50.772;6.100;2022-10-26T08:40:03;17.40;99.90
28839;DHT22;15971;50.772;6.100;2022-10-26T08:42:39;17.50;99.90
28839;DHT22;15971;50.772;6.100;2022-10-26T08:45:11;17.50;99.90
28839;DHT22;15971;50.772;6.100;2022-10-26T08:47:46;17.70;99.90
28839;DHT22;15971;50.772;6.100;2022-10-26T08:50:32;18.00;99.90
28839;DHT22;15971;50.772;6.100;2022-10-26T08:53:11;18.50;99.90
28839;DHT22;15971;50.772;6.100;2022-10-26T08:55:46;18.90;99.90
28839;DHT22;15971;50.772;6.100;2022-10-26T08:58:19;18.90;99.90
28839;DHT22;15971;50.772;6.100;2022-10-26T09:00:47;18.70;99.90
28839;DHT22;15971;50.772;6.100;2022-10-26T09:03:15;18.50;99.90
28839;DHT22;15971;50.772;6.100;2022-10-26T09:06:11;18.30;99.90
28839;DHT22;15971;50.772;6.100;2022-10-26T09:14:27;18.40;99.90
28839;DHT22;15971;50.772;6.100;2022-10-26T09:23:05;18.80;99.90
28839;DHT22;15971;50.772;6.100;2022-10-26T09:25:40;18.80;99.90
28839;DHT22;15971;50.772;6.100;2022-10-26T09:28:14;18.70;99.90
28839;DHT22;15971;50.772;6.100;2022-10-26T09:30:44;18.70;99.90
28839;DHT22;15971;50.772;6.100;2022-10-26T09:33:18;18.70;99.90
28839;DHT22;15971;50.772;6.100;2022-10-26T09:35:56;18.80;99.90
28839;DHT22;15971;50.772;6.100;2022-10-26T09:41:26;18.80;99.90
28839;DHT22;15971;50.772;6.100;2022-10-26T09:44:04;18.80;99.90
28839;DHT22;15971;50.772;6.100;2022-10-26T09:46:56;18.90;99.90
28839;DHT22;15971;50.772;6.100;2022-10-26T09:49:36;19.00;99.90
28839;DHT22;15971;50.772;6.100;2022-10-26T09:52:06;19.10;99.90
28839;DHT22;15971;50.772;6.100;2022-10-26T09:54:31;19.00;99.90
28839;DHT22;15971;50.772;6.100;2022-10-26T09:56:58;19.20;99.90
28839;DHT22;15971;50.772;6.100;2022-10-26T09:59:27;19.30;99.90
28839;DHT22;15971;50.772;6.100;2022-10-26T10:01:54;19.30;99.90
28839;DHT22;15971;50.772;6.100;2022-10-26T10:04:21;19.40;99.90
28839;DHT22;15971;50.772;6.100;2022-10-26T10:09:33;19.50;99.90
28839;DHT22;15971;50.772;6.100;2022-10-26T10:12:00;19.60;99.90
28839;DHT22;15971;50.772;6.100;2022-10-26T10:14:32;19.80;99.90
28839;DHT22;15971;50.772;6.100;2022-10-26T10:17:03;19.80;99.90
28839;DHT22;15971;50.772;6.100;2022-10-26T10:19:30;19.80;99.90
28839;DHT22;15971;50.772;6.100;2022-10-26T10:21:59;19.80;99.90
28839;DHT22;15971;50.772;6.100;2022-10-26T10:24:30;19.90;99.90
28839;DHT22;15971;50.772;6.100;2022-10-26T10:29:26;20.00;99.90
28839;DHT22;15971;50.772;6.100;2022-10-26T10:31:57;19.90;99.90
28839;DHT22;15971;50.772;6.100;2022-10-26T10:34:23;20.00;99.90
28839;DHT22;15971;50.772;6.100;2022-10-26T10:36:49;20.00;99.90
28839;DHT22;15971;50.772;6.100;2022-10-26T10:39:38;20.00;99.90
28839;DHT22;15971;50.772;6.100;2022-10-26T10:42:22;20.10;99.90
28839;DHT22;15971;50.772;6.100;2022-10-26T10:44:54;20.20;99.90
28839;DHT22;15971;50.772;6.100;2022-10-26T10:47:27;20.10;99.90
28839;DHT22;15971;50.772;6.100;2022-10-26T10:50:21;20.00;99.90
28839;DHT22;15971;50.772;6.100;2022-10-26T10:52:46;20.10;99.90
28839;DHT22;15971;50.772;6.100;2022-10-26T10:55:16;20.10;99.90
28839;DHT22;15971;50.772;6.100;2022-10-26T11:00:09;20.20;99.90
28839;DHT22;15971;50.772;6.100;2022-10-26T11:08:20;20.60;99.90
28839;DHT22;15971;50.772;6.100;2022-10-26T11:10:56;20.60;99.90
28839;DHT22;15971;50.772;6.100;2022-10-26T11:13:28;20.60;99.90
28839;DHT22;15971;50.772;6.100;2022-10-26T11:16:00;20.60;99.90
28839;DHT22;15971;50.772;6.100;2022-10-26T11:18:36;20.60;99.90
28839;DHT22;15971;50.772;6.100;2022-10-26T11:21:35;20.70;99.90
28839;DHT22;15971;50.772;6.100;2022-10-26T11:24:28;20.70;99.90
28839;DHT22;15971;50.772;6.100;2022-10-26T11:27:41;20.70;99.90
28839;DHT22;15971;50.772;6.100;2022-10-26T11:35:42;20.80;99.90
28839;DHT22;15971;50.772;6.100;2022-10-26T11:38:13;20.90;99.90
28839;DHT22;15971;50.772;6.100;2022-10-26T11:46:16;20.90;99.90
28839;DHT22;15971;50.772;6.100;2022-10-26T11:48:58;20.90;99.90
28839;DHT22;15971;50.772;6.100;2022-10-26T11:54:57;20.90;99.90
28839;DHT22;15971;50.772;6.100;2022-10-26T11:57:26;21.10;99.90
28839;DHT22;15971;50.772;6.100;2022-10-26T12:00:00;20.90;99.90
28839;DHT22;15971;50.772;6.100;2022-10-26T12:02:26;20.80;99.90
28839;DHT22;15971;50.772;6.100;2022-10-26T12:05:04;20.80;99.90
28839;DHT22;15971;50.772;6.100;2022-10-26T12:07:33;20.90;99.90
28839;DHT22;15971;50.772;6.100;2022-10-26T12:10:01;21.00;99.90
28839;DHT22;15971;50.772;6.100;2022-10-26T12:12:51;21.20;99.90
28839;DHT22;15971;50.772;6.100;2022-10-26T12:15:39;21.30;99.90
28839;DHT22;15971;50.772;6.100;2022-10-26T12:18:11;21.30;99.90
28839;DHT22;15971;50.772;6.100;2022-10-26T12:20:54;21.20;99.90
28839;DHT22;15971;50.772;6.100;2022-10-26T12:23:27;21.10;99.90
28839;DHT22;15971;50.772;6.100;2022-10-26T12:28:48;21.20;99.90
28839;DHT22;15971;50.772;6.100;2022-10-26T12:34:22;21.50;99.90
28839;DHT22;15971;50.772;6.100;2022-10-26T12:39:32;21.70;99.90
28839;DHT22;15971;50.772;6.100;2022-10-26T12:46:56;21.80;99.90
28839;DHT22;15971;50.772;6.100;2022-10-26T12:57:56;22.00;99.90
28839;DHT22;15971;50.772;6.100;2022-10-26T13:00:25;21.90;99.90
28839;DHT22;15971;50.772;6.100;2022-10-26T13:03:14;21.90;99.90
28839;DHT22;15971;50.772;6.100;2022-10-26T13:08:43;21.80;99.90
28839;DHT22;15971;50.772;6.100;2022-10-26T13:13:43;21.80;99.90
28839;DHT22;15971;50.772;6.100;2022-10-26T13:16:11;21.80;99.90
28839;DHT22;15971;50.772;6.100;2022-10-26T13:18:41;21.60;99.90
28839;DHT22;15971;50.772;6.100;2022-10-26T13:21:13;21.60;99.90
28839;DHT22;15971;50.772;6.100;2022-10-26T13:26:20;21.50;99.90
28839;DHT22;15971;50.772;6.100;2022-10-26T13:28:47;21.50;99.90
28839;DHT22;15971;50.772;6.100;2022-10-26T13:36:33;21.40;99.90
28839;DHT22;15971;50.772;6.100;2022-10-26T13:39:13;21.50;99.90
28839;DHT22;15971;50.772;6.100;2022-10-26T13:41:43;21.40;99.90
28839;DHT22;15971;50.772;6.100;2022-10-26T13:44:27;21.40;99.90
28839;DHT22;15971;50.772;6.100;2022-10-26T13:46:57;21.40;99.90
28839;DHT22;15971;50.772;6.100;2022-10-26T13:49:28;21.30;99.90
28839;DHT22;15971;50.772;6.100;2022-10-26T13:51:55;21.20;99.90
28839;DHT22;15971;50.772;6.100;2022-10-26T13:54:31;21.20;99.90
28839;DHT22;15971;50.772;6.100;2022-10-26T13:57:04;21.20;99.90
28839;DHT22;15971;50.772;6.100;2022-10-26T13:59:38;21.20;99.90
28839;DHT22;15971;50.772;6.100;2022-10-26T14:02:24;21.10;99.90
28839;DHT22;15971;50.772;6.100;2022-10-26T14:05:10;21.10;99.90
28839;DHT22;15971;50.772;6.100;2022-10-26T14:07:55;21.10;99.90
28839;DHT22;15971;50.772;6.100;2022-10-26T14:12:54;21.00;99.90
28839;DHT22;15971;50.772;6.100;2022-10-26T14:15:25;21.00;99.90
28839;DHT22;15971;50.772;6.100;2022-10-26T14:17:53;21.00;99.90
28839;DHT22;15971;50.772;6.100;2022-10-26T14:20:21;21.00;99.90
28839;DHT22;15971;50.772;6.100;2022-10-26T14:22:48;21.00;99.90
28839;DHT22;15971;50.772;6.100;2022-10-26T14:25:28;21.10;99.90
28839;DHT22;15971;50.772;6.100;2022-10-26T14:27:56;21.00;99.90
28839;DHT22;15971;50.772;6.100;2022-10-26T14:30:24;21.00;99.90
28839;DHT22;15971;50.772;6.100;2022-10-26T14:32:51;20.90;99.90
28839;DHT22;15971;50.772;6.100;2022-10-26T14:35:26;21.00;99.90
28839;DHT22;15971;50.772;6.100;2022-10-26T14:37:59;20.90;99.90
28839;DHT22;15971;50.772;6.100;2022-10-26T14:40:27;20.80;99.90
28839;DHT22;15971;50.772;6.100;2022-10-26T14:42:58;20.80;99.90
28839;DHT22;15971;50.772;6.100;2022-10-26T14:45:28;20.80;99.90
28839;DHT22;15971;50.772;6.100;2022-10-26T14:47:59;20.80;99.90
28839;DHT22;15971;50.772;6.100;2022-10-26T14:50:26;20.70;99.90
28839;DHT22;15971;50.772;6.100;2022-10-26T14:52:58;20.70;99.90
28839;DHT22;15971;50.772;6.100;2022-10-26T14:55:25;20.70;99.90
28839;DHT22;15971;50.772;6.100;2022-10-26T14:58:04;20.70;99.90
28839;DHT22;15971;50.772;6.100;2022-10-26T15:00:32;20.70;99.90
28839;DHT22;15971;50.772;6.100;2022-10-26T15:02:57;20.60;99.90
28839;DHT22;15971;50.772;6.100;2022-10-26T15:07:52;20.50;99.90
28839;DHT22;15971;50.772;6.100;2022-10-26T15:13:31;20.40;99.90
28839;DHT22;15971;50.772;6.100;2022-10-26T15:16:07;20.30;99.90
28839;DHT22;15971;50.772;6.100;2022-10-26T15:18:35;20.30;99.90
28839;DHT22;15971;50.772;6.100;2022-10-26T15:21:01;20.30;99.90
28839;DHT22;15971;50.772;6.100;2022-10-26T15:23:28;20.30;99.90
28839;DHT22;15971;50.772;6.100;2022-10-26T15:25:59;20.30;99.90
28839;DHT22;15971;50.772;6.100;2022-10-26T15:28:38;20.30;99.90
28839;DHT22;15971;50.772;6.100;2022-10-26T15:33:53;20.10;99.90
28839;DHT22;15971;50.772;6.100;2022-10-26T15:36:26;20.00;99.90
28839;DHT22;15971;50.772;6.100;2022-10-26T15:38:52;20.00;99.90
28839;DHT22;15971;50.772;6.100;2022-10-26T15:41:28;19.90;99.90
28839;DHT22;15971;50.772;6.100;2022-10-26T15:43:57;19.90;99.90
28839;DHT22;15971;50.772;6.100;2022-10-26T15:46:24;19.80;99.90
28839;DHT22;15971;50.772;6.100;2022-10-26T15:48:55;19.70;99.90
28839;DHT22;15971;50.772;6.100;2022-10-26T15:51:21;19.60;99.90
28839;DHT22;15971;50.772;6.100;2022-10-26T15:53:47;19.60;99.90
28839;DHT22;15971;50.772;6.100;2022-10-26T15:56:17;19.50;99.90
28839;DHT22;15971;50.772;6.100;2022-10-26T15:58:44;19.50;99.90
28839;DHT22;15971;50.772;6.100;2022-10-26T16:01:17;19.40;99.90
28839;DHT22;15971;50.772;6.100;2022-10-26T16:03:43;19.10;99.90
28839;DHT22;15971;50.772;6.100;2022-10-26T16:08:50;19.30;99.90
28839;DHT22;15971;50.772;6.100;2022-10-26T16:11:16;19.30;99.90
28839;DHT22;15971;50.772;6.100;2022-10-26T16:13:42;19.20;99.90
28839;DHT22;15971;50.772;6.100;2022-10-26T16:16:14;19.00;99.90
28839;DHT22;15971;50.772;6.100;2022-10-26T16:18:40;19.00;99.90
28839;DHT22;15971;50.772;6.100;2022-10-26T16:21:12;18.90;99.90
28839;DHT22;15971;50.772;6.100;2022-10-26T16:23:39;18.80;99.90
28839;DHT22;15971;50.772;6.100;2022-10-26T16:26:05;18.80;99.90
28839;DHT22;15971;50.772;6.100;2022-10-26T16:28:31;18.80;99.90
28839;DHT22;15971;50.772;6.100;2022-10-26T16:31:05;18.80;99.90
28839;DHT22;15971;50.772;6.100;2022-10-26T16:33:32;18.70;99.90
28839;DHT22;15971;50.772;6.100;2022-10-26T16:35:58;18.70;99.90
28839;DHT22;15971;50.772;6.100;2022-10-26T16:38:24;18.70;99.90
28839;DHT22;15971;50.772;6.100;2022-10-26T16:41:04;18.60;99.90
28839;DHT22;15971;50.772;6.100;2022-10-26T16:43:31;18.50;99.90
28839;DHT22;15971;50.772;6.100;2022-10-26T16:45:58;18.60;99.90
28839;DHT22;15971;50.772;6.100;2022-10-26T16:48:23;18.50;99.90
28839;DHT22;15971;50.772;6.100;2022-10-26T16:50:49;18.50;99.90
28839;DHT22;15971;50.772;6.100;2022-10-26T16:53:14;18.40;99.90
28839;DHT22;15971;50.772;6.100;2022-10-26T16:55:40;18.40;99.90
28839;DHT22;15971;50.772;6.100;2022-10-26T16:58:06;18.40;99.90
28839;DHT22;15971;50.772;6.100;2022-10-26T17:00:34;18.30;99.90
28839;DHT22;15971;50.772;6.100;2022-10-26T17:02:59;18.30;99.90
28839;DHT22;15971;50.772;6.100;2022-10-26T17:05:26;18.30;99.90
28839;DHT22;15971;50.772;6.100;2022-10-26T17:07:52;18.30;99.90
28839;DHT22;15971;50.772;6.100;2022-10-26T17:10:18;18.30;99.90
28839;DHT22;15971;50.772;6.100;2022-10-26T17:12:43;18.30;99.90
28839;DHT22;15971;50.772;6.100;2022-10-26T17:15:09;18.30;99.90
28839;DHT22;15971;50.772;6.100;2022-10-26T17:17:35;18.30;99.90
28839;DHT22;15971;50.772;6.100;2022-10-26T17:20:01;18.20;99.90
28839;DHT22;15971;50.772;6.100;2022-10-26T17:22:26;18.20;99.90
28839;DHT22;15971;50.772;6.100;2022-10-26T17:24:52;18.10;99.90
28839;DHT22;15971;50.772;6.100;2022-10-26T17:27:18;18.10;99.90
28839;DHT22;15971;50.772;6.100;2022-10-26T17:29:44;18.00;99.90
28839;DHT22;15971;50.772;6.100;2022-10-26T17:32:10;18.00;99.90
28839;DHT22;15971;50.772;6.100;2022-10-26T17:34:35;18.00;99.90
28839;DHT22;15971;50.772;6.100;2022-10-26T17:37:01;18.00;99.90
28839;DHT22;15971;50.772;6.100;2022-10-26T17:39:26;18.00;99.90
28839;DHT22;15971;50.772;6.100;2022-10-26T17:41:52;17.90;99.90
28839;DHT22;15971;50.772;6.100;2022-10-26T17:44:18;17.80;99.90
28839;DHT22;15971;50.772;6.100;2022-10-26T17:46:43;17.80;99.90
28839;DHT22;15971;50.772;6.100;2022-10-26T17:49:09;17.80;99.90
28839;DHT22;15971;50.772;6.100;2022-10-26T17:51:35;17.70;99.90
28839;DHT22;15971;50.772;6.100;2022-10-26T17:54:01;17.80;99.90
28839;DHT22;15971;50.772;6.100;2022-10-26T17:56:29;17.70;99.90
28839;DHT22;15971;50.772;6.100;2022-10-26T17:58:57;17.80;99.90